Aviation Digital Data Service (ADDS)

Output produced by TAFs form (1357 UTC 30 January 2015)
found at http://aviationweather.gov/adds/tafs/
 
KROW 301213Z 3012/3112 09009KT P6SM VCSH SCT030 OVC050 
     FM301600 12006KT 4SM -RASN BR SCT015 BKN025 
     FM302100 10006KT 5SM -RA BR BKN015 
     FM310300 14006KT 3SM -SN BR OVC009